Etusivu
METAR-TAF:

METAR-TAF

Lentoasemat :

Storm Lake Municipal Airport

Storm Lake, Iowa, Yhdysvallat

Leveyspiiri: 42-36N, Pituuspiiri: 095-14W, korkeus merenpinnasta: 454 m

Tämänhetkinen sää

Tämä raportti tehtiin 15 minuuttia sitten, kello 12.15 UTC
Tuuli 17 kn kaakosta
Lämpötila 3°C
Kosteus 100%
Ilmanpaine 1011 hPa
Näkyvyys: 14.5 km
Muutamia pilviä 12000 ft:n korkeudessa

METAR: KSLB 011215Z AUTO 14017KT 9SM FEW120 03/03 A2985 RMK AO2

Aika: 07:30 (12:30 UTC)


TAF: puuttuu

Säähavainnot ja -ennusteet yli 4000 lentoasemalta (METAR- ja TAF-raportit).

Käytössä olevat sääasemat on merkitty karttaan keltaisilla ja punaisilla pisteillä.

Aseta hiiri pisteen päälle nähdäksesi sääaseman nimen.

Klikkaa sitten nähdäksesi säähavainnot ja -ennusteet.

Kartan vaihtaminen: klikkaa mustalla rastilla varustettuja vihreitä pisteitä, niin voit zoomata sisään; viivalla varustettua vihreää pistettä, niin voit zoomata ulos tai vihreitä nuolia, niin pääset viereisille kartoille.


METAR-TAF: